Historique des mesures à Cassis (13260), France
Quotidien Résumé Avril 29, 2017 Unités:  US    Métrique   Métrique/US
« Précédent (Jour)
Suivant (Jour) »
Quotidien Hebdomadaire Mensuel Annuel Période au choix
  Maximum: Minimum: Moyenne:
Température: 32 °F 48.7 °F 57.4 °F
Point de rosée: 32 °F 30.9 °F 40.3 °F
Humidité: Humidity % 44 % 50 %
Vitesse du vent: WindSpeedKMH mph 0.0 mph 2.5 mph
Rafales: WindSpeedGustKMH mph - -
Vent:- - South
Pression: 0 in 29.8 in -
Précipitations: 0 in    
Historical Graphs
 
 
Mesures pour : Avril 29, 2017
Heure Temperature Point de rosée Pression Vent Vitesse du vent Rafales Humidité Pluie (par heure) Conditions
32 °F 32 °F 0 in Calm     Humidity % 0 in SoftwareType W/m2
00:10 51.6 °F 30.9 °F 29.8 in West 13.0 mph 21.6 mph 45 % 0 in open2300-1.11 W/m2
01:10 50.2 °F 31.3 °F 29.8 in NNW 9.7 mph 10.5 mph 48 % 0 in open2300-1.11 W/m2
02:10 50.7 °F 31.1 °F 29.8 in NNE 2.9 mph 11.6 mph 47 % 0 in open2300-1.11 W/m2
03:10 50.2 °F 31.3 °F 29.8 in NNE 3.5 mph 3.5 mph 48 % 0 in open2300-1.11 W/m2
04:10 49.6 °F 31.3 °F 29.8 in NNW 3.2 mph 12.6 mph 49 % 0 in open2300-1.11 W/m2
05:11 48.7 °F 30.9 °F 29.8 in North 1.1 mph 3.5 mph 50 % 0 in open2300-1.11 W/m2
06:10 48.9 °F 31.5 °F 29.8 in Calm     51 % 0 in open2300-1.11 W/m2
07:11 49.1 °F 32.7 °F 29.9 in NNE 2.9 mph 3.2 mph 53 % 0 in open2300-1.11 W/m2
08:10 58.8 °F 37.9 °F 29.9 in NW 1.4 mph 2.1 mph 46 % 0 in open2300-1.11 W/m2
09:10 55.4 °F 36 °F 29.9 in Calm   4.0 mph 48 % 0 in open2300-1.11 W/m2
10:10 57.4 °F 37.8 °F 29.9 in Calm   15.8 mph 48 % 0 in open2300-1.11 W/m2
11:10 64 °F 43.3 °F 29.9 in SE 4.0 mph 5.8 mph 47 % 0 in open2300-1.11 W/m2
12:10 66.2 °F 46.6 °F 29.9 in West 2.1 mph 5.8 mph 49 % 0 in open2300-1.11 W/m2
13:10 68.2 °F 45.3 °F 29.9 in West 1.1 mph 1.8 mph 44 % 0 in open2300-1.11 W/m2
14:10 69.1 °F 49.1 °F 29.9 in SSW 4.0 mph 4.0 mph 49 % 0 in open2300-1.11 W/m2
15:11 67.8 °F 49.1 °F 29.9 in NW 2.6 mph 7.2 mph 51 % 0 in open2300-1.11 W/m2
16:11 67.3 °F 50.5 °F 29.9 in ESE 1.4 mph 3.5 mph 55 % 0 in open2300-1.11 W/m2
17:10 66.2 °F 49.5 °F 29.9 in NE 1.1 mph 11.6 mph 55 % 0 in open2300-1.11 W/m2
18:10 64.8 °F 49.6 °F 29.9 in WNW 3.2 mph 3.2 mph 58 % 0 in open2300-1.11 W/m2
19:10 63.1 °F 48 °F 29.9 in West 4.7 mph 4.7 mph 58 % 0 in open2300-1.11 W/m2
20:10 61 °F 47.5 °F 29.9 in South 1.1 mph 1.1 mph 61 % 0 in open2300-1.11 W/m2
21:10 59.4 °F 45.9 °F 29.9 in Calm     61 % 0 in open2300-1.11 W/m2
22:10 58.3 °F 45.7 °F 29.9 in Calm     63 % 0 in open2300-1.11 W/m2
23:10 56.1 °F 44.4 °F 29.9 in Calm     65 % 0 in open2300-1.11 W/m2
Observations météo à CASSIS
WU-History script by Weather Underground - 1 mb